Terminal Aerodrome Forecast
Issued by NWS

Home | Current Version | Previous Version | Text Only | Print | Product List | Glossary On
Versions: 1 2 3 4 5 6 7 8 9 10 11 12 13 14
107
FTUS45 KGGW 111133
TAFSDY
TAF
KSDY 111133Z 1112/1212 31005KT P6SM -SN BKN060
     FM111600 26006KT P6SM BKN060
     FM120100 25005KT P6SM BKN025
     FM120600 33008KT P6SM VCSH OVC020=

USA.gov is the U.S. government's official web portal to all federal, state and local government web resources and services.